Time;durP1;ratioP1;P1;durP2;ratioP2;P2;SDS_P1;SDS_P2;PMS_P1;PMS_P2;Temp;Humidity;BMP_temperature;BMP_pressure;BME280_temperature;BME280_humidity;BME280_pressure;Samples;Min_cycle;Max_cycle;Signal;HPM_P1;HPM_P2
2022/04/20 00:01:10;;;;;;;3.63;1.70;;;;;;;21.15;32.79;101465.19;5011733;28;20338;-62
2022/04/20 00:03:36;;;;;;;3.40;1.60;;;;;;;21.14;32.95;101466.13;5013118;28;20405;-62
2022/04/20 00:06:07;;;;;;;2.97;1.38;;;;;;;21.12;32.89;101463.63;5012708;28;20018;-63
2022/04/20 00:08:33;;;;;;;2.33;1.30;;;;;;;21.10;32.97;101462.09;5012096;28;20022;-63
2022/04/20 00:11:02;;;;;;;2.95;1.40;;;;;;;21.09;32.75;101469.16;5012499;28;20045;-63
2022/04/20 00:13:27;;;;;;;2.28;1.20;;;;;;;21.08;32.91;101461.34;5012680;28;20029;-63
2022/04/20 00:15:53;;;;;;;2.47;1.23;;;;;;;21.07;32.78;101463.16;5011391;28;20029;-63
2022/04/20 00:18:18;;;;;;;3.30;1.37;;;;;;;21.06;32.84;101466.81;5013007;28;20053;-63
2022/04/20 00:20:43;;;;;;;2.80;1.30;;;;;;;21.06;32.85;101463.31;5012864;28;20276;-63
2022/04/20 00:23:09;;;;;;;3.75;1.42;;;;;;;21.05;32.69;101469.59;5011862;28;20112;-62
2022/04/20 00:25:34;;;;;;;2.58;1.30;;;;;;;21.03;32.66;101461.78;5012690;28;20022;-63
2022/04/20 00:27:59;;;;;;;3.15;1.50;;;;;;;21.02;32.97;101471.50;5012090;28;20026;-63
2022/04/20 00:30:25;;;;;;;2.53;1.35;;;;;;;21.00;32.61;101473.44;5011763;28;20025;-63
2022/04/20 00:32:50;;;;;;;2.70;1.40;;;;;;;21.01;32.48;101471.63;5012554;28;20026;-63
2022/04/20 00:35:15;;;;;;;2.75;1.38;;;;;;;21.00;32.71;101476.09;5012683;28;20673;-63
2022/04/20 00:37:44;;;;;;;4.13;1.50;;;;;;;20.98;32.82;101475.41;5011948;28;20441;-63
2022/04/20 00:40:11;;;;;;;4.20;1.50;;;;;;;20.97;32.78;101481.66;5012160;28;20026;-64
2022/04/20 00:42:39;;;;;;;2.75;1.40;;;;;;;20.95;32.93;101473.00;5012398;28;20109;-63
2022/04/20 00:45:08;;;;;;;2.38;1.30;;;;;;;20.94;32.64;101475.78;5011719;28;20030;-63
2022/04/20 00:47:36;;;;;;;3.00;1.40;;;;;;;20.94;32.70;101473.13;5012618;28;20053;-63
2022/04/20 00:50:02;;;;;;;2.97;1.35;;;;;;;20.92;32.72;101475.91;5011193;28;20437;-63
2022/04/20 00:52:28;;;;;;;5.15;1.60;;;;;;;20.90;32.55;101477.81;5012667;28;20455;-63
2022/04/20 00:54:53;;;;;;;2.73;1.43;;;;;;;20.90;32.73;101482.28;5014689;28;20105;-63
2022/04/20 00:57:21;;;;;;;3.10;1.60;;;;;;;20.89;32.64;101483.28;5015194;28;20271;-63
2022/04/20 00:59:48;;;;;;;3.17;1.50;;;;;;;20.89;32.51;101480.63;5015899;28;20287;-63
2022/04/20 01:02:14;;;;;;;3.60;1.60;;;;;;;20.87;32.54;101474.59;5015936;28;20426;-63
2022/04/20 01:04:39;;;;;;;2.90;1.30;;;;;;;20.87;32.60;101477.25;5015226;28;20064;-63
2022/04/20 01:07:16;;;;;;;3.30;1.52;;;;;;;20.86;32.68;101473.75;5015669;28;20032;-62
2022/04/20 01:09:42;;;;;;;2.92;1.50;;;;;;;20.85;32.55;101477.38;5015590;28;20076;-62
2022/04/20 01:12:09;;;;;;;4.30;1.60;;;;;;;20.84;32.61;101483.66;5014733;28;20145;-62
2022/04/20 01:14:35;;;;;;;2.70;1.30;;;;;;;20.82;32.50;101481.13;5015774;28;20057;-62
2022/04/20 01:17:01;;;;;;;2.80;1.48;;;;;;;20.81;32.66;101481.25;5015089;28;20034;-61
2022/04/20 01:19:38;;;;;;;3.10;1.50;;;;;;;20.79;32.55;101481.38;5015075;28;20028;-62
2022/04/20 01:22:05;;;;;;;3.25;1.42;;;;;;;20.79;32.61;101481.38;5015449;28;20030;-62
2022/04/20 01:24:32;;;;;;;3.47;1.50;;;;;;;20.79;32.41;101483.19;5015484;28;20096;-63
2022/04/20 01:27:01;;;;;;;3.38;1.70;;;;;;;20.77;32.59;101478.00;5014221;28;20030;-63
2022/04/20 01:29:27;;;;;;;4.25;1.50;;;;;;;20.77;32.61;101477.16;5015403;28;20033;-63
2022/04/20 01:31:53;;;;;;;2.88;1.50;;;;;;;20.76;32.57;101483.44;5014879;28;20053;-63
2022/04/20 01:34:18;;;;;;;3.17;1.50;;;;;;;20.75;32.50;101482.59;5014693;28;20118;-63
2022/04/20 01:36:44;;;;;;;3.40;1.70;;;;;;;20.75;32.50;101482.59;5015335;28;20482;-63
2022/04/20 01:39:09;;;;;;;3.03;1.50;;;;;;;20.74;32.51;101483.56;5014264;28;20030;-62
2022/04/20 01:41:34;;;;;;;3.47;1.40;;;;;;;20.73;32.24;101489.84;5015283;28;20040;-62
2022/04/20 01:44:03;;;;;;;3.63;1.50;;;;;;;20.72;32.57;101482.00;5014951;28;20028;-62
2022/04/20 01:46:28;;;;;;;3.08;1.48;;;;;;;20.72;32.49;101477.53;5014403;28;20037;-62
2022/04/20 01:48:54;;;;;;;3.50;1.50;;;;;;;20.71;32.02;101482.97;5014642;28;20022;-62
2022/04/20 01:54:06;;;;;;;2.92;1.52;;;;;;;20.69;32.34;101477.78;5014143;28;20087;-62
2022/04/20 01:56:31;;;;;;;3.40;1.60;;;;;;;20.69;32.32;101487.56;5014730;28;20374;-62
2022/04/20 01:58:56;;;;;;;4.10;1.58;;;;;;;20.67;32.36;101484.22;5014504;28;20160;-62
2022/04/20 02:04:08;;;;;;;3.70;1.70;;;;;;;20.64;32.33;101485.28;5014556;28;20037;-62
2022/04/20 02:06:34;;;;;;;2.60;1.50;;;;;;;20.63;32.42;101480.91;5014001;28;20030;-62
2022/04/20 02:08:59;;;;;;;3.20;1.50;;;;;;;20.62;32.48;101480.09;5013838;28;20032;-62
2022/04/20 02:11:25;;;;;;;3.38;1.52;;;;;;;20.62;32.36;101481.91;5014642;28;20100;-62
2022/04/20 02:13:50;;;;;;;3.20;1.50;;;;;;;20.60;32.31;101483.81;5014425;28;20360;-62
2022/04/20 02:16:15;;;;;;;2.80;1.50;;;;;;;20.59;32.09;101484.81;5013722;28;20508;-62
2022/04/20 02:18:40;;;;;;;2.88;1.40;;;;;;;20.57;32.31;101476.97;5014328;28;20021;-62
2022/04/20 02:21:06;;;;;;;3.00;1.60;;;;;;;20.59;32.38;101476.84;5014374;28;20552;-62
2022/04/20 02:23:37;;;;;;;3.57;1.70;;;;;;;20.57;32.11;101476.13;5014173;28;20327;-62
2022/04/20 02:26:02;;;;;;;3.15;1.35;;;;;;;20.56;32.29;101475.28;5014141;28;20275;-62
2022/04/20 02:28:27;;;;;;;2.40;1.42;;;;;;;20.54;32.31;101474.56;5014133;28;20459;-62
2022/04/20 02:30:53;;;;;;;2.90;1.55;;;;;;;20.54;32.38;101479.88;5014320;28;20120;-63
2022/04/20 02:33:18;;;;;;;3.72;1.58;;;;;;;20.53;32.06;101474.69;5014737;28;20037;-63
2022/04/20 02:35:44;;;;;;;3.07;1.50;;;;;;;20.52;32.18;101475.66;5014598;28;20022;-64
2022/04/20 02:38:11;;;;;;;3.22;1.75;;;;;;;20.51;32.20;101477.47;5014214;28;20268;-63
2022/04/20 02:40:38;;;;;;;3.22;1.50;;;;;;;20.50;32.09;101481.06;5015083;28;20026;-63
2022/04/20 02:43:04;;;;;;;2.45;1.40;;;;;;;20.49;32.15;101474.13;5014469;28;20033;-64
2022/04/20 02:45:32;;;;;;;3.25;1.50;;;;;;;20.47;32.21;101479.53;5014665;28;20018;-62
2022/04/20 02:47:57;;;;;;;3.47;1.67;;;;;;;20.46;32.40;101491.09;5013842;28;20037;-63
2022/04/20 02:50:23;;;;;;;4.03;1.80;;;;;;;20.47;32.03;101483.97;5013646;28;20030;-63
2022/04/20 02:52:48;;;;;;;2.75;1.50;;;;;;;20.45;32.77;101481.44;5013983;28;20116;-62
2022/04/20 02:55:16;;;;;;;3.40;1.85;;;;;;;20.44;32.32;101485.09;5013958;28;20072;-63
2022/04/20 02:57:41;;;;;;;4.75;1.92;;;;;;;20.42;32.11;101484.34;5013072;28;20022;-62
2022/04/20 03:00:10;;;;;;;3.97;1.63;;;;;;;20.42;32.19;101487.00;5013518;28;20452;-63
2022/04/20 03:02:35;;;;;;;3.45;1.60;;;;;;;20.42;32.09;101488.81;5013384;28;20425;-62
2022/04/20 03:05:00;;;;;;;3.20;1.40;;;;;;;20.40;32.30;101490.75;5012236;28;20061;-62
2022/04/20 03:07:27;;;;;;;3.53;1.75;;;;;;;20.41;32.31;101495.91;5013484;28;20057;-63
2022/04/20 03:09:52;;;;;;;3.55;1.80;;;;;;;20.39;32.17;101492.53;5013087;28;20080;-63
2022/04/20 03:12:18;;;;;;;3.07;1.50;;;;;;;20.37;32.14;101494.47;5012544;28;20034;-63
2022/04/20 03:14:43;;;;;;;4.22;1.60;;;;;;;20.39;32.25;101491.69;5013401;28;20283;-63
2022/04/20 03:17:08;;;;;;;2.70;1.50;;;;;;;20.36;32.07;101490.16;5012657;28;20069;-64
2022/04/20 03:19:33;;;;;;;4.00;1.80;;;;;;;20.37;32.34;101491.00;5012507;28;20271;-63
2022/04/20 03:22:02;;;;;;;2.65;1.45;;;;;;;20.36;32.02;101489.31;5012984;28;20282;-63
2022/04/20 03:24:27;;;;;;;2.92;1.38;;;;;;;20.36;31.94;101494.59;5012541;28;20458;-63
2022/04/20 03:26:52;;;;;;;3.37;1.60;;;;;;;20.30;32.00;101491.47;5012809;28;20075;-63
2022/04/20 03:29:17;;;;;;;3.30;1.43;;;;;;;20.33;31.93;101495.69;5013019;28;20042;-62
2022/04/20 03:31:43;;;;;;;3.33;1.50;;;;;;;20.33;32.08;101505.44;5012306;28;20763;-63
2022/04/20 03:34:09;;;;;;;2.70;1.40;;;;;;;20.32;31.95;101509.06;5012764;28;20240;-63
2022/04/20 03:36:37;;;;;;;3.10;1.50;;;;;;;20.30;32.04;101507.38;5013036;28;20489;-62
2022/04/20 03:39:03;;;;;;;2.97;1.60;;;;;;;20.28;31.91;101504.00;5012176;28;20033;-62
2022/04/20 03:41:31;;;;;;;3.20;1.50;;;;;;;20.28;32.17;101517.25;5013117;28;20026;-63
2022/04/20 03:43:56;;;;;;;4.00;1.40;;;;;;;20.28;31.99;101511.94;5012824;28;20109;-62
2022/04/20 03:46:23;;;;;;;4.13;1.90;;;;;;;20.27;31.99;101514.72;5012240;28;20105;-62
2022/04/20 03:48:49;;;;;;;3.88;1.73;;;;;;;20.26;32.23;101507.72;5012713;28;20123;-62
2022/04/20 03:51:15;;;;;;;3.40;1.40;;;;;;;20.26;31.93;101513.03;5013046;28;20026;-62
2022/04/20 03:53:40;;;;;;;3.00;1.40;;;;;;;20.25;32.18;101509.53;5012235;28;20029;-62
2022/04/20 03:56:08;;;;;;;3.47;1.50;;;;;;;20.24;32.00;101513.16;5012537;28;20108;-62
2022/04/20 03:58:33;;;;;;;3.20;1.60;;;;;;;20.25;31.89;101513.97;5012894;28;20330;-63
2022/04/20 04:00:59;;;;;;;3.42;1.50;;;;;;;20.24;31.78;101518.44;5011703;28;20474;-62
2022/04/20 04:03:24;;;;;;;3.83;1.60;;;;;;;20.23;32.03;101515.91;5012804;28;20030;-62
2022/04/20 04:05:49;;;;;;;2.58;1.40;;;;;;;20.23;31.93;101521.22;5012477;28;20033;-62
2022/04/20 04:08:15;;;;;;;2.63;1.30;;;;;;;20.22;31.91;101516.88;5012128;28;20028;-62
2022/04/20 04:10:40;;;;;;;4.53;1.60;;;;;;;20.22;31.98;101524.81;5012676;28;20498;-62
2022/04/20 04:13:06;;;;;;;4.17;1.50;;;;;;;20.21;31.79;101521.31;5012383;28;20030;-63
2022/04/20 04:15:31;;;;;;;3.17;1.52;;;;;;;20.19;31.63;101522.44;5011805;28;20275;-62
2022/04/20 04:17:59;;;;;;;3.20;1.58;;;;;;;20.20;31.73;101526.75;5012038;28;20034;-62
2022/04/20 04:20:28;;;;;;;4.38;1.45;;;;;;;20.19;31.79;101533.03;5012672;28;20029;-64
2022/04/20 04:22:53;;;;;;;3.50;1.50;;;;;;;20.19;31.78;101533.03;5011550;28;20398;-62
2022/04/20 04:25:19;;;;;;;3.38;1.60;;;;;;;20.17;31.88;101530.50;5012445;28;20477;-62
2022/04/20 04:27:45;;;;;;;4.95;1.48;;;;;;;20.17;31.81;101534.91;5010858;28;20496;-62
2022/04/20 04:30:11;;;;;;;3.80;1.40;;;;;;;20.18;31.69;101533.97;5015184;28;20478;-63
2022/04/20 04:32:37;;;;;;;2.83;1.40;;;;;;;20.17;31.90;101538.44;5016341;28;20109;-62
2022/04/20 04:35:02;;;;;;;3.20;1.52;;;;;;;20.17;31.87;101543.72;5015191;28;20101;-63
2022/04/20 04:37:27;;;;;;;3.10;1.50;;;;;;;20.16;31.74;101538.56;5016152;28;20022;-62
2022/04/20 04:39:56;;;;;;;3.15;1.30;;;;;;;20.14;31.63;101543.97;5015751;28;20037;-62
2022/04/20 04:42:22;;;;;;;3.20;1.95;;;;;;;20.14;32.04;101549.25;5015205;28;20030;-62
2022/04/20 04:44:47;;;;;;;3.95;1.50;;;;;;;20.14;31.75;101551.91;5015569;28;20477;-62
2022/04/20 04:49:58;;;;;;;3.58;1.73;;;;;;;20.13;31.77;101549.38;5013360;28;20413;-62
2022/04/20 04:52:23;;;;;;;4.50;1.90;;;;;;;20.13;31.70;101557.31;5015653;28;20054;-62
2022/04/20 04:54:49;;;;;;;3.20;1.60;;;;;;;20.13;31.61;101567.91;5015482;28;20542;-61
2022/04/20 04:57:14;;;;;;;4.32;1.80;;;;;;;20.11;31.71;101563.56;5014773;28;20805;-62
2022/04/20 04:59:40;;;;;;;3.97;1.70;;;;;;;20.11;31.70;101563.56;5015712;28;20022;-62
2022/04/20 05:02:06;;;;;;;2.85;1.35;;;;;;;20.10;31.83;101567.16;5015365;28;20026;-62
2022/04/20 05:04:32;;;;;;;3.88;1.50;;;;;;;20.10;31.56;101568.97;5014804;28;20030;-61
2022/04/20 05:06:58;;;;;;;2.80;1.30;;;;;;;20.09;31.53;101568.13;5015225;28;20024;-61
2022/04/20 05:09:23;;;;;;;3.08;1.70;;;;;;;20.10;31.59;101558.38;5015321;28;20478;-62
2022/04/20 05:11:49;;;;;;;3.00;1.63;;;;;;;20.09;31.53;101562.84;5014092;28;20081;-62
2022/04/20 05:14:15;;;;;;;3.10;1.60;;;;;;;20.09;31.78;101564.63;5015519;28;20037;-62
2022/04/20 05:16:40;;;;;;;3.65;1.73;;;;;;;20.09;31.78;101561.97;5015071;28;20050;-61
2022/04/20 05:19:05;;;;;;;2.70;1.38;;;;;;;20.08;31.68;101563.78;5013882;28;20389;-62
2022/04/20 05:21:30;;;;;;;3.33;1.60;;;;;;;20.08;31.64;101555.03;5015069;28;20034;-62
2022/04/20 05:23:58;;;;;;;3.30;1.43;;;;;;;20.10;32.00;101556.56;5014689;28;20797;-61
2022/04/20 05:26:24;;;;;;;3.17;1.40;;;;;;;20.13;32.22;101560.78;5014027;28;20349;-62
2022/04/20 05:28:49;;;;;;;2.85;1.30;;;;;;;20.18;32.85;101563.91;5014651;28;20054;-62
2022/04/20 05:31:15;;;;;;;3.53;1.30;;;;;;;20.21;32.98;101562.84;5013701;28;20445;-62
2022/04/20 05:33:40;;;;;;;3.60;1.30;;;;;;;20.25;32.95;101570.41;5014800;28;20623;-61
2022/04/20 05:36:05;;;;;;;3.00;1.67;;;;;;;20.29;33.41;101569.19;5014550;28;20022;-61
2022/04/20 05:43:58;;;;;;;2.92;1.35;;;;;;;20.38;33.27;101585.34;5014666;28;20092;-62
2022/04/20 05:46:23;;;;;;;3.73;1.60;;;;;;;20.40;33.34;101580.75;5013841;28;20025;-62
2022/04/20 05:48:49;;;;;;;3.75;1.23;;;;;;;20.42;33.57;101590.25;5014446;28;20042;-62
2022/04/20 05:51:14;;;;;;;2.83;1.27;;;;;;;20.43;33.70;101584.00;5014284;28;20114;-62
2022/04/20 05:53:39;;;;;;;2.65;1.40;;;;;;;20.45;33.73;101592.66;5013846;28;20029;-62
2022/04/20 05:56:05;;;;;;;2.85;1.20;;;;;;;20.48;33.45;101584.47;5013865;28;20112;-62
2022/04/20 05:58:30;;;;;;;3.10;1.30;;;;;;;20.51;33.57;101588.69;5014391;28;20034;-62
2022/04/20 06:00:55;;;;;;;2.30;1.20;;;;;;;20.54;33.71;101583.16;5013236;28;20112;-62
2022/04/20 06:03:20;;;;;;;2.90;1.37;;;;;;;20.57;33.59;101582.03;5014163;28;20030;-62
2022/04/20 06:05:46;;;;;;;2.47;1.10;;;;;;;20.54;33.53;101572.56;5014108;28;20274;-62
2022/04/20 06:08:11;;;;;;;2.72;1.15;;;;;;;20.60;33.47;101577.34;5013045;28;20032;-62
2022/04/20 06:10:37;;;;;;;3.87;1.23;;;;;;;20.62;33.47;101575.41;5013999;28;20038;-62
2022/04/20 06:13:02;;;;;;;3.65;1.60;;;;;;;20.64;33.63;101576.16;5013847;28;20647;-62
2022/04/20 06:15:27;;;;;;;3.22;1.30;;;;;;;20.66;33.79;101583.97;5013075;28;20466;-62
2022/04/20 06:17:53;;;;;;;3.17;1.40;;;;;;;20.67;33.63;101577.72;5013444;28;20104;-63
2022/04/20 06:20:18;;;;;;;3.40;1.50;;;;;;;20.67;32.40;101582.19;5013349;28;20326;-62
2022/04/20 06:22:46;;;;;;;4.65;1.65;;;;;;;20.69;33.07;101583.75;5014187;28;20022;-62
2022/04/20 06:25:11;;;;;;;4.88;1.35;;;;;;;20.74;32.89;101580.72;5013736;28;20034;-62
2022/04/20 06:27:36;;;;;;;3.50;1.70;;;;;;;20.79;32.83;101591.78;5013143;28;20743;-62
2022/04/20 06:30:02;;;;;;;4.47;1.55;;;;;;;20.80;32.94;101590.81;5013580;28;20646;-60
2022/04/20 06:32:28;;;;;;;3.35;1.25;;;;;;;20.81;33.22;101592.53;5013721;28;20026;-62
2022/04/20 06:34:54;;;;;;;2.20;1.20;;;;;;;20.75;33.12;101591.19;5012802;28;20449;-63
2022/04/20 06:37:20;;;;;;;3.15;1.30;;;;;;;20.72;33.56;101582.66;5013918;28;20105;-64
2022/04/20 06:39:46;;;;;;;2.97;1.20;;;;;;;20.71;33.66;101596.84;5013786;28;20108;-64
2022/04/20 06:42:13;;;;;;;3.00;1.30;;;;;;;20.68;33.73;101600.63;5012654;28;20057;-65
2022/04/20 06:44:39;;;;;;;4.32;1.40;;;;;;;20.67;33.78;101601.56;5013891;28;20172;-66
2022/04/20 06:47:05;;;;;;;2.53;1.30;;;;;;;20.67;33.99;101595.44;5013513;28;20022;-62
2022/04/20 06:49:30;;;;;;;2.80;1.25;;;;;;;20.67;33.77;101600.75;5012783;28;20064;-61
2022/04/20 07:00:08;;;;;;;2.47;1.30;;;;;;;20.89;33.51;101592.72;5014082;28;20033;-64
2022/04/20 07:02:34;;;;;;;3.17;1.50;;;;;;;20.89;33.33;101598.03;5012957;28;20030;-64
2022/04/20 07:04:59;;;;;;;2.85;1.20;;;;;;;20.88;33.37;101593.69;5013476;28;20072;-64
2022/04/20 07:07:24;;;;;;;3.53;1.17;;;;;;;20.88;33.32;101599.00;5013869;28;20026;-62
2022/04/20 07:09:50;;;;;;;4.20;1.48;;;;;;;20.92;33.38;101595.13;5012325;28;20293;-64
2022/04/20 07:12:15;;;;;;;2.58;1.17;;;;;;;21.01;33.10;101594.38;5015761;28;20025;-66
2022/04/20 07:14:40;;;;;;;3.90;1.63;;;;;;;21.13;32.98;101597.00;5013981;28;20022;-63
2022/04/20 07:17:07;;;;;;;3.37;1.33;;;;;;;21.25;32.91;101588.00;5012408;28;20068;-64
2022/04/20 07:19:33;;;;;;;4.32;1.45;;;;;;;21.39;32.96;101589.53;5013290;28;20830;-62
2022/04/20 07:21:58;;;;;;;2.85;1.20;;;;;;;21.52;32.67;101592.88;5013416;28;20112;-62
2022/04/20 07:24:23;;;;;;;3.80;1.50;;;;;;;21.59;32.45;101594.97;5012677;28;20025;-62
2022/04/20 07:26:49;;;;;;;3.17;1.37;;;;;;;21.64;32.38;101593.63;5013766;28;20118;-62
2022/04/20 07:29:14;;;;;;;3.40;1.60;;;;;;;21.68;32.34;101595.06;5012877;28;20057;-64
2022/04/20 07:31:39;;;;;;;3.73;1.43;;;;;;;21.72;32.46;101593.81;5012704;28;20306;-68
2022/04/20 07:34:04;;;;;;;4.27;1.50;;;;;;;21.77;32.37;101596.09;5013241;28;20042;-64
2022/04/20 07:36:32;;;;;;;3.20;1.50;;;;;;;21.83;32.31;101598.22;5015237;28;20286;-62
2022/04/20 07:39:00;;;;;;;3.17;1.42;;;;;;;21.87;32.10;101602.31;5013732;28;20275;-66
2022/04/20 07:41:25;;;;;;;4.25;1.42;;;;;;;21.92;32.10;101604.53;5013771;28;20038;-65
2022/04/20 07:43:54;;;;;;;4.40;1.60;;;;;;;21.91;32.08;101601.06;5012409;28;20028;-66
2022/04/20 07:46:20;;;;;;;4.13;1.90;;;;;;;21.93;31.96;101593.78;5012161;28;20766;-65
2022/04/20 07:48:48;;;;;;;4.07;1.45;;;;;;;21.96;32.17;101594.53;5013025;28;20050;-63
2022/04/20 07:51:13;;;;;;;3.90;1.60;;;;;;;21.99;31.94;101608.34;5013047;28;20030;-63
2022/04/20 07:53:39;;;;;;;3.45;1.50;;;;;;;21.99;31.90;101608.34;5012067;28;20102;-65
2022/04/20 07:56:08;;;;;;;3.95;1.50;;;;;;;21.98;32.01;101614.63;5012539;28;20053;-64
2022/04/20 07:58:33;;;;;;;3.47;1.70;;;;;;;21.98;32.06;101614.63;5013039;28;20046;-65
2022/04/20 08:00:58;;;;;;;3.47;1.60;;;;;;;22.00;32.26;101612.72;5013023;28;20157;-65
2022/04/20 08:03:24;;;;;;;4.27;1.30;;;;;;;22.03;32.08;101612.44;5013935;28;20152;-64
2022/04/20 08:05:52;;;;;;;3.72;1.80;;;;;;;22.03;32.27;101614.25;5016589;28;20275;-65
2022/04/20 08:08:18;;;;;;;3.70;1.67;;;;;;;22.03;31.99;101607.13;5017348;28;20022;-66
2022/04/20 08:10:43;;;;;;;3.47;1.40;;;;;;;22.06;32.56;101613.97;5017171;28;20026;-66
2022/04/20 08:15:54;;;;;;;4.20;2.00;;;;;;;22.08;32.09;101612.88;5017401;28;20393;-67
2022/04/20 08:18:20;;;;;;;4.28;1.70;;;;;;;22.12;31.92;101612.63;5017098;28;20084;-71
2022/04/20 08:20:45;;;;;;;4.50;1.90;;;;;;;22.13;32.10;101611.63;5015865;28;20018;-68
2022/04/20 08:23:11;;;;;;;3.83;1.75;;;;;;;22.15;32.25;101612.34;5016047;28;20030;-66
2022/04/20 08:25:36;;;;;;;5.22;1.73;;;;;;;22.15;32.15;101610.53;5016458;28;20030;-67
2022/04/20 08:28:01;;;;;;;5.82;1.52;;;;;;;22.16;32.12;101611.38;5015358;28;20026;-67
2022/04/20 08:30:28;;;;;;;3.87;1.80;;;;;;;22.16;32.28;101614.88;5016273;28;20030;-67
2022/04/20 08:32:53;;;;;;;5.82;1.67;;;;;;;22.13;32.17;101612.50;5016055;28;20306;-68
2022/04/20 08:35:24;;;;;;;4.20;1.88;;;;;;;22.12;32.29;101616.09;5015442;28;20076;-66
2022/04/20 08:37:50;;;;;;;3.25;1.60;;;;;;;22.13;32.45;101619.59;5015929;28;20545;-66
2022/04/20 08:40:15;;;;;;;3.40;1.67;;;;;;;22.10;32.46;101621.53;5016445;28;20106;-67
2022/04/20 08:42:41;;;;;;;5.13;1.95;;;;;;;22.08;32.44;101617.34;5016163;28;20504;-67
2022/04/20 08:45:08;;;;;;;4.75;1.73;;;;;;;22.09;32.43;101611.88;5016362;28;20029;-64
2022/04/20 08:47:43;;;;;;;3.92;1.92;;;;;;;22.08;31.91;101612.06;5016018;28;20568;-63
2022/04/20 08:50:09;;;;;;;5.82;1.92;;;;;;;22.07;32.08;101620.97;5014935;28;20077;-62
2022/04/20 08:52:37;;;;;;;4.03;1.60;;;;;;;22.05;32.33;101610.50;5015717;28;20500;-62
2022/04/20 08:55:07;;;;;;;4.32;1.67;;;;;;;22.03;32.06;101608.94;5014978;28;20060;-64
2022/04/20 08:57:35;;;;;;;4.32;1.80;;;;;;;21.99;31.71;101602.22;5016057;28;20389;-61
2022/04/20 09:00:04;;;;;;;4.72;1.90;;;;;;;21.96;32.02;101597.19;5015474;28;20026;-61
2022/04/20 09:02:30;;;;;;;4.07;1.73;;;;;;;21.93;31.97;101598.25;5015189;28;20033;-62
2022/04/20 09:04:56;;;;;;;4.32;1.70;;;;;;;21.91;32.21;101589.59;5015325;28;20489;-62
2022/04/20 09:07:22;;;;;;;3.28;1.40;;;;;;;21.91;32.42;101600.22;5015901;28;20033;-62
2022/04/20 09:09:47;;;;;;;5.32;1.95;;;;;;;21.91;32.61;101600.22;5014612;28;20478;-62
2022/04/20 09:12:22;;;;;;;4.22;1.90;;;;;;;21.91;32.83;101595.75;5015321;28;20114;-61
2022/04/20 09:14:50;;;;;;;4.00;1.58;;;;;;;21.90;32.65;101599.38;5015291;28;20022;-62
2022/04/20 09:17:22;;;;;;;3.42;1.80;;;;;;;21.90;32.86;101604.69;5014534;28;20065;-62
2022/04/20 09:19:52;;;;;;;2.85;1.48;;;;;;;21.90;32.82;101595.88;5015609;28;20021;-62
2022/04/20 09:22:20;;;;;;;3.53;1.83;;;;;;;21.88;32.79;101598.66;5015134;28;20037;-62
2022/04/20 09:24:59;;;;;;;3.90;1.63;;;;;;;21.88;32.88;101596.00;5014784;28;20022;-62
2022/04/20 09:27:27;;;;;;;6.25;1.70;;;;;;;21.88;32.87;101589.88;5015332;28;20045;-62
2022/04/20 09:29:56;;;;;;;3.70;1.60;;;;;;;21.87;32.83;101594.34;5014975;28;20029;-62
2022/04/20 09:32:36;;;;;;;4.20;1.70;;;;;;;21.85;33.03;101596.25;5014690;28;20022;-61
2022/04/20 09:35:05;;;;;;;3.53;1.70;;;;;;;21.85;33.10;101587.47;5015182;28;20124;-61
2022/04/20 09:37:31;;;;;;;4.43;1.80;;;;;;;21.83;32.99;101587.59;5014519;28;20030;-61
2022/04/20 09:39:57;;;;;;;4.15;1.58;;;;;;;21.81;33.18;101581.59;5014932;28;20030;-61
2022/04/20 09:42:24;;;;;;;4.18;1.77;;;;;;;21.79;33.17;101572.91;5015055;28;20076;-61
2022/04/20 09:44:59;;;;;;;3.28;1.33;;;;;;;21.79;33.09;101574.72;5014167;28;20037;-61
2022/04/20 09:50:13;;;;;;;3.85;1.65;;;;;;;21.77;33.33;101577.50;5014461;28;20045;-61
2022/04/20 09:52:40;;;;;;;2.80;1.40;;;;;;;21.74;33.34;101572.47;5014361;28;20386;-61
2022/04/20 09:55:07;;;;;;;3.75;1.70;;;;;;;21.73;33.48;101576.13;5014587;28;20546;-61
2022/04/20 09:57:37;;;;;;;3.50;1.60;;;;;;;21.70;33.38;101571.91;5014494;28;20030;-61
2022/04/20 10:00:12;;;;;;;3.63;1.50;;;;;;;21.71;33.35;101575.38;5014030;28;20076;-61
2022/04/20 10:02:48;;;;;;;4.75;1.67;;;;;;;21.70;33.34;101571.91;5014797;28;20030;-61
2022/04/20 10:05:16;;;;;;;3.75;1.52;;;;;;;21.69;33.24;101574.69;5014699;28;20022;-61
2022/04/20 10:07:41;;;;;;;4.93;1.75;;;;;;;21.66;33.44;101567.81;5014121;28;20076;-62
2022/04/20 10:10:07;;;;;;;3.58;1.50;;;;;;;21.65;33.72;101560.84;5014184;28;20038;-62
2022/04/20 10:12:36;;;;;;;5.78;1.67;;;;;;;21.63;33.31;101561.94;5013927;28;20026;-62
2022/04/20 10:17:54;;;;;;;3.22;1.45;;;;;;;21.61;33.48;101562.06;5013932;28;20088;-61
2022/04/20 10:20:26;;;;;;;4.00;1.63;;;;;;;21.60;33.66;101562.19;5013800;28;20385;-61
2022/04/20 10:22:53;;;;;;;3.33;1.58;;;;;;;21.60;33.55;101549.75;5014166;28;20049;-61
2022/04/20 10:25:18;;;;;;;3.55;1.80;;;;;;;21.59;33.55;101545.44;5014387;28;20105;-61
2022/04/20 10:28:06;;;;;;;3.47;1.50;;;;;;;21.59;33.78;101552.53;5012786;28;20109;-61
2022/04/20 10:30:43;;;;;;;3.20;1.40;;;;;;;21.58;33.71;101542.94;5014243;28;20038;-62
2022/04/20 10:33:19;;;;;;;4.68;1.67;;;;;;;21.57;33.54;101536.78;5014043;28;20056;-62
2022/04/20 10:35:54;;;;;;;3.20;1.60;;;;;;;21.58;33.69;101548.22;5013178;28;20543;-62
2022/04/20 10:38:24;;;;;;;3.67;1.50;;;;;;;21.57;33.73;101547.41;5014169;28;20442;-61
2022/04/20 10:41:10;;;;;;;3.58;1.45;;;;;;;21.55;33.66;101542.22;5012807;28;20032;-62
2022/04/20 10:43:42;;;;;;;3.75;1.50;;;;;;;21.55;33.83;101536.06;5014162;28;20125;-60
2022/04/20 10:46:07;;;;;;;3.30;1.70;;;;;;;21.54;33.68;101535.22;5013311;28;20028;-62
2022/04/20 10:48:47;;;;;;;2.92;1.52;;;;;;;21.54;33.83;101532.56;5013129;28;20112;-62
2022/04/20 10:51:14;;;;;;;4.32;1.50;;;;;;;21.53;33.87;101530.88;5013341;28;20030;-62
2022/04/20 10:53:39;;;;;;;4.40;1.75;;;;;;;21.51;34.08;101532.84;5013852;28;20065;-62
2022/04/20 10:56:04;;;;;;;2.88;1.45;;;;;;;21.52;34.02;101528.38;5012832;28;20597;-62
2022/04/20 10:59:07;;;;;;;3.72;1.63;;;;;;;21.50;34.07;101520.53;5013385;28;20084;-62
2022/04/20 11:02:06;;;;;;;4.38;1.88;;;;;;;21.51;33.16;101524.06;5013675;28;20052;-63
2022/04/20 11:04:42;;;;;;;2.83;1.60;;;;;;;21.53;32.80;101533.53;5014166;28;20033;-66
2022/04/20 11:07:07;;;;;;;3.35;1.50;;;;;;;21.56;32.83;101521.84;5013978;28;20034;-64
2022/04/20 11:09:45;;;;;;;2.90;1.40;;;;;;;21.61;32.69;101519.63;5012943;28;20125;-65
2022/04/20 11:21:06;;;;;;;2.65;1.33;;;;;;;21.79;32.91;101511.88;5013709;28;20092;-70
2022/04/20 11:23:58;;;;;;;3.00;1.50;;;;;;;21.85;32.92;101508.72;5013106;28;20113;-70
2022/04/20 11:26:28;;;;;;;4.50;1.48;;;;;;;21.91;33.04;101504.69;5013284;28;20044;-67
2022/04/20 11:29:01;;;;;;;5.40;1.73;;;;;;;21.95;32.68;101506.09;5012849;28;20486;-69
2022/04/20 11:31:33;;;;;;;3.22;1.70;;;;;;;21.99;32.84;101510.16;5012898;28;20022;-67
2022/04/20 11:33:59;;;;;;;5.20;1.40;;;;;;;22.02;32.76;101501.94;5012814;28;20385;-70
2022/04/20 11:36:24;;;;;;;2.78;1.42;;;;;;;22.02;32.83;101493.97;5014176;28;20106;-66
2022/04/20 11:38:51;;;;;;;4.77;1.57;;;;;;;22.02;32.83;101488.66;5012010;28;20109;-64
2022/04/20 11:41:22;;;;;;;4.90;1.48;;;;;;;22.02;33.04;101488.66;5013115;28;20276;-64
2022/04/20 11:43:50;;;;;;;2.92;1.60;;;;;;;22.03;32.87;101490.34;5012936;28;20028;-67
2022/04/20 11:46:16;;;;;;;3.40;1.40;;;;;;;22.05;33.00;101484.91;5013546;28;20390;-67
2022/04/20 11:48:58;;;;;;;3.00;1.50;;;;;;;22.05;32.71;101480.44;5013685;28;20037;-65
2022/04/20 11:51:29;;;;;;;3.33;1.40;;;;;;;22.05;32.91;101483.09;5011971;28;20488;-64
2022/04/20 11:53:55;;;;;;;2.95;1.20;;;;;;;22.06;33.13;101482.13;5012733;28;20172;-67
2022/04/20 11:56:37;;;;;;;3.05;1.40;;;;;;;22.08;33.01;101477.50;5013634;28;20014;-63
2022/04/20 11:59:07;;;;;;;3.05;1.52;;;;;;;22.08;33.10;101471.38;5011722;28;20037;-65
2022/04/20 12:01:37;;;;;;;2.25;1.30;;;;;;;22.09;33.17;101481.00;5012722;28;20064;-65
2022/04/20 12:04:20;;;;;;;2.92;1.40;;;;;;;22.06;33.20;101476.81;5012456;28;20030;-65